MSC Asli — 9HA2643 — position and weather

sailwx.info

Track history (hours):
 
Tides and Currents Weather Stations Pressure Air Temp Water Temp Dewpoint Dewpoint Depression Visibility Wind Speed Wind Dir Waves Ship Positions

MSC Asli

Last reported at 2017-Nov-17 08:47 UTC. Time now 2017-Dec-14 02:41 UTC.
Position N 44°06' E 028°40'.
Warning: this ship's position is 26 days out of date.

Length 217 m; draft 9.1 m.

Type: Ship (hazmat cat A). MMSI: 215113000.

Date/timePositionNaut miles runAvg speedWind from/ knotsBaromVisibWave heightAir tempDewpointWater temp
2017-Nov-17 08:47N 44°06' E 028°40'0 0.0
2017-Nov-17 08:29N 44°06' E 028°40'0 0.0
2017-Nov-17 07:56N 44°06' E 028°40'0 0.0
2017-Nov-17 07:29N 44°06' E 028°40'0 0.0
2017-Nov-17 06:59N 44°06' E 028°40'0 0.0
2017-Nov-17 06:28N 44°06' E 028°40'0 0.0
2017-Nov-17 05:58N 44°06' E 028°40'0 0.0
2017-Nov-17 05:25N 44°06' E 028°40'0 0.0
2017-Nov-17 04:58N 44°06' E 028°40'0 0.0
2017-Nov-17 04:27N 44°06' E 028°40'0 0.1
2017-Nov-17 04:00N 44°06' E 028°40'1 2.2
2017-Nov-17 03:30N 44°06' E 028°41'1 1.5
2017-Nov-17 03:00N 44°06' E 028°42'3 5.3
2017-Nov-17 02:30N 44°05' E 028°45'3 5.9
2017-Nov-17 02:00N 44°07' E 028°47'0 0.1
2017-Nov-17 01:30N 44°07' E 028°47'0 0.0
2017-Nov-17 01:00N 44°07' E 028°47'0 0.0
2017-Nov-17 00:30N 44°07' E 028°47'0 0.0
2017-Nov-16 23:59N 44°07' E 028°47'0 0.0
2017-Nov-16 23:29N 44°07' E 028°47'0 0.0
2017-Nov-16 22:59N 44°07' E 028°47'0 0.0
2017-Nov-16 22:29N 44°07' E 028°47'0 0.0
2017-Nov-16 21:59N 44°07' E 028°47'0 0.0
2017-Nov-16 21:28N 44°07' E 028°47'0 0.0
2017-Nov-16 20:58N 44°07' E 028°47'0 0.0
2017-Nov-16 20:28N 44°07' E 028°47'0 0.0
2017-Nov-16 19:58N 44°07' E 028°47'0 0.0
2017-Nov-16 19:31N 44°07' E 028°47'0 0.0
2017-Nov-16 19:00N 44°07' E 028°47'0 0.0
2017-Nov-16 18:30N 44°07' E 028°47'0 0.0
2017-Nov-16 18:00N 44°07' E 028°47'0 0.0
2017-Nov-16 17:30N 44°07' E 028°47'0 0.0
2017-Nov-16 16:59N 44°07' E 028°47'0 0.0
2017-Nov-16 16:29N 44°07' E 028°47'0 0.0
2017-Nov-16 15:59N 44°07' E 028°47'0 0.0
2017-Nov-16 15:29N 44°07' E 028°47'200 5.3
2017-Nov-15 01:34N 40°47' E 029°02'0 0.4
2017-Nov-15 01:30N 40°47' E 029°02'0 0.4
2017-Nov-15 01:00N 40°47' E 029°02'0 0.5
2017-Nov-15 00:30N 40°47' E 029°02'1 1.9
2017-Nov-15 00:00N 40°47' E 029°03'5 9.2
2017-Nov-14 23:30N 40°46' E 029°09'510.9
2017-Nov-14 23:00N 40°45' E 029°16'5 9.8
2017-Nov-14 22:30N 40°45' E 029°23'6 0.6
2017-Nov-14 11:53N 40°45' E 029°30'411.6
2017-Nov-14 11:30N 40°44' E 029°25'5 9.3
2017-Nov-14 10:58N 40°43' E 029°18'613.1
2017-Nov-14 10:30N 40°44' E 029°10'712.5
2017-Nov-14 09:57N 40°44' E 029°01'1 1.3
2017-Nov-14 09:30N 40°44' E 029°00'1 1.2
2017-Nov-14 08:59N 40°45' E 029°00'1 1.1
2017-Nov-14 08:30N 40°45' E 029°00'1 1.1
2017-Nov-14 08:00N 40°46' E 028°60'1 1.2
2017-Nov-14 07:29N 40°46' E 028°59'1 1.1
2017-Nov-14 06:59N 40°47' E 028°59'0 0.9
2017-Nov-14 06:28N 40°47' E 028°59'0 0.8
2017-Nov-14 06:00N 40°48' E 028°59'0 0.7
2017-Nov-14 05:30N 40°48' E 028°59'0 0.2
2017-Nov-14 04:58N 40°48' E 028°58'2 5.3
2017-Nov-14 04:30N 40°45' E 028°58'3 4.9
2017-Nov-14 04:00N 40°43' E 028°58'1 1.0
2017-Nov-14 03:29N 40°43' E 028°57'0 0.8
2017-Nov-14 02:59N 40°44' E 028°57'1 1.1
2017-Nov-14 02:30N 40°44' E 028°57'1 1.3
2017-Nov-14 02:00N 40°44' E 028°56'1 1.0
2017-Nov-14 01:25N 40°45' E 028°55'0 0.5
2017-Nov-14 00:59N 40°45' E 028°55'0 0.3
2017-Nov-14 00:28N 40°45' E 028°55'0 0.2
2017-Nov-13 23:58N 40°45' E 028°55'0 0.2
2017-Nov-13 23:29N 40°45' E 028°55'0 0.3
2017-Nov-13 23:00N 40°45' E 028°55'0 0.5
2017-Nov-13 22:28N 40°45' E 028°56'0 0.7
2017-Nov-13 22:00N 40°46' E 028°56'  
2017-Nov-11 07:28N 37°37' E 025°51'714.4
2017-Nov-11 07:00N 37°31' E 025°53'  
Track history (hours):
 
Tides and Currents Weather Stations Pressure Air Temp Water Temp Dewpoint Dewpoint Depression Visibility Wind Speed Wind Dir Waves Ship Positions

MSC Asli

Last reported at 2017-Nov-17 08:47 UTC. Time now 2017-Dec-14 02:41 UTC.
Position N 44°06' E 028°40'.
Warning: this ship's position is 26 days out of date.

Length 217 m; draft 9.1 m.

Type: Ship (hazmat cat A). MMSI: 215113000.

Date/timePositionNaut miles runAvg speedWind from/ knotsBaromVisibWave heightAir tempDewpointWater temp
2017-Nov-17 08:47N 44°06' E 028°40'0 0.0
2017-Nov-17 08:29N 44°06' E 028°40'0 0.0
2017-Nov-17 07:56N 44°06' E 028°40'0 0.0
2017-Nov-17 07:29N 44°06' E 028°40'0 0.0
2017-Nov-17 06:59N 44°06' E 028°40'0 0.0
2017-Nov-17 06:28N 44°06' E 028°40'0 0.0
2017-Nov-17 05:58N 44°06' E 028°40'0 0.0
2017-Nov-17 05:25N 44°06' E 028°40'0 0.0
2017-Nov-17 04:58N 44°06' E 028°40'0 0.0
2017-Nov-17 04:27N 44°06' E 028°40'0 0.1
2017-Nov-17 04:00N 44°06' E 028°40'1 2.2
2017-Nov-17 03:30N 44°06' E 028°41'1 1.5
2017-Nov-17 03:00N 44°06' E 028°42'3 5.3
2017-Nov-17 02:30N 44°05' E 028°45'3 5.9
2017-Nov-17 02:00N 44°07' E 028°47'0 0.1
2017-Nov-17 01:30N 44°07' E 028°47'0 0.0
2017-Nov-17 01:00N 44°07' E 028°47'0 0.0
2017-Nov-17 00:30N 44°07' E 028°47'0 0.0
2017-Nov-16 23:59N 44°07' E 028°47'0 0.0
2017-Nov-16 23:29N 44°07' E 028°47'0 0.0
2017-Nov-16 22:59N 44°07' E 028°47'0 0.0
2017-Nov-16 22:29N 44°07' E 028°47'0 0.0
2017-Nov-16 21:59N 44°07' E 028°47'0 0.0
2017-Nov-16 21:28N 44°07' E 028°47'0 0.0
2017-Nov-16 20:58N 44°07' E 028°47'0 0.0
2017-Nov-16 20:28N 44°07' E 028°47'0 0.0
2017-Nov-16 19:58N 44°07' E 028°47'0 0.0
2017-Nov-16 19:31N 44°07' E 028°47'0 0.0
2017-Nov-16 19:00N 44°07' E 028°47'0 0.0
2017-Nov-16 18:30N 44°07' E 028°47'0 0.0
2017-Nov-16 18:00N 44°07' E 028°47'0 0.0
2017-Nov-16 17:30N 44°07' E 028°47'0 0.0
2017-Nov-16 16:59N 44°07' E 028°47'0 0.0
2017-Nov-16 16:29N 44°07' E 028°47'0 0.0
2017-Nov-16 15:59N 44°07' E 028°47'0 0.0
2017-Nov-16 15:29N 44°07' E 028°47'200 5.3
2017-Nov-15 01:34N 40°47' E 029°02'0 0.4
2017-Nov-15 01:30N 40°47' E 029°02'0 0.4
2017-Nov-15 01:00N 40°47' E 029°02'0 0.5
2017-Nov-15 00:30N 40°47' E 029°02'1 1.9
2017-Nov-15 00:00N 40°47' E 029°03'5 9.2
2017-Nov-14 23:30N 40°46' E 029°09'510.9
2017-Nov-14 23:00N 40°45' E 029°16'5 9.8
2017-Nov-14 22:30N 40°45' E 029°23'6 0.6
2017-Nov-14 11:53N 40°45' E 029°30'411.6
2017-Nov-14 11:30N 40°44' E 029°25'5 9.3
2017-Nov-14 10:58N 40°43' E 029°18'613.1
2017-Nov-14 10:30N 40°44' E 029°10'712.5
2017-Nov-14 09:57N 40°44' E 029°01'1 1.3
2017-Nov-14 09:30N 40°44' E 029°00'1 1.2
2017-Nov-14 08:59N 40°45' E 029°00'1 1.1
2017-Nov-14 08:30N 40°45' E 029°00'1 1.1
2017-Nov-14 08:00N 40°46' E 028°60'1 1.2
2017-Nov-14 07:29N 40°46' E 028°59'1 1.1
2017-Nov-14 06:59N 40°47' E 028°59'0 0.9
2017-Nov-14 06:28N 40°47' E 028°59'0 0.8
2017-Nov-14 06:00N 40°48' E 028°59'0 0.7
2017-Nov-14 05:30N 40°48' E 028°59'0 0.2
2017-Nov-14 04:58N 40°48' E 028°58'2 5.3
2017-Nov-14 04:30N 40°45' E 028°58'3 4.9
2017-Nov-14 04:00N 40°43' E 028°58'1 1.0
2017-Nov-14 03:29N 40°43' E 028°57'0 0.8
2017-Nov-14 02:59N 40°44' E 028°57'1 1.1
2017-Nov-14 02:30N 40°44' E 028°57'1 1.3
2017-Nov-14 02:00N 40°44' E 028°56'1 1.0
2017-Nov-14 01:25N 40°45' E 028°55'0 0.5
2017-Nov-14 00:59N 40°45' E 028°55'0 0.3
2017-Nov-14 00:28N 40°45' E 028°55'0 0.2
2017-Nov-13 23:58N 40°45' E 028°55'0 0.2
2017-Nov-13 23:29N 40°45' E 028°55'0 0.3
2017-Nov-13 23:00N 40°45' E 028°55'0 0.5
2017-Nov-13 22:28N 40°45' E 028°56'0 0.7
2017-Nov-13 22:00N 40°46' E 028°56'  
2017-Nov-11 07:28N 37°37' E 025°51'714.4
2017-Nov-11 07:00N 37°31' E 025°53'  

Dump ship's entire track history